sensor_id;sensor_type;location;lat;lon;timestamp;P1;durP1;ratioP1;P2;durP2;ratioP2
43048;SDS011;28673;44.412;11.918;2023-03-14T00:01:50;6.78;;;2.30;;
43048;SDS011;28673;44.412;11.918;2023-03-14T00:04:16;9.20;;;1.95;;
43048;SDS011;28673;44.412;11.918;2023-03-14T00:06:42;5.85;;;1.23;;
43048;SDS011;28673;44.412;11.918;2023-03-14T00:20:31;4.53;;;1.88;;
43048;SDS011;28673;44.412;11.918;2023-03-14T00:22:57;10.85;;;1.70;;
43048;SDS011;28673;44.412;11.918;2023-03-14T00:25:23;7.10;;;1.33;;
43048;SDS011;28673;44.412;11.918;2023-03-14T00:27:50;7.32;;;1.73;;
43048;SDS011;28673;44.412;11.918;2023-03-14T00:30:17;6.25;;;1.58;;
43048;SDS011;28673;44.412;11.918;2023-03-14T00:32:43;7.40;;;1.80;;
43048;SDS011;28673;44.412;11.918;2023-03-14T00:35:09;3.67;;;1.55;;
43048;SDS011;28673;44.412;11.918;2023-03-14T00:37:35;5.10;;;1.30;;
43048;SDS011;28673;44.412;11.918;2023-03-14T00:40:01;5.38;;;1.48;;
43048;SDS011;28673;44.412;11.918;2023-03-14T00:42:28;5.30;;;1.60;;
43048;SDS011;28673;44.412;11.918;2023-03-14T00:44:54;4.95;;;1.13;;
43048;SDS011;28673;44.412;11.918;2023-03-14T00:47:20;4.82;;;1.30;;
43048;SDS011;28673;44.412;11.918;2023-03-14T00:49:46;5.32;;;1.92;;
43048;SDS011;28673;44.412;11.918;2023-03-14T00:52:13;5.95;;;1.88;;
43048;SDS011;28673;44.412;11.918;2023-03-14T00:54:39;13.40;;;1.65;;
43048;SDS011;28673;44.412;11.918;2023-03-14T00:57:05;5.53;;;1.80;;
43048;SDS011;28673;44.412;11.918;2023-03-14T00:59:31;6.40;;;1.40;;
43048;SDS011;28673;44.412;11.918;2023-03-14T01:01:57;4.97;;;1.67;;
43048;SDS011;28673;44.412;11.918;2023-03-14T01:04:23;4.07;;;1.65;;
43048;SDS011;28673;44.412;11.918;2023-03-14T01:06:49;5.38;;;1.38;;
43048;SDS011;28673;44.412;11.918;2023-03-14T01:09:15;4.00;;;1.52;;
43048;SDS011;28673;44.412;11.918;2023-03-14T01:11:43;7.93;;;2.10;;
43048;SDS011;28673;44.412;11.918;2023-03-14T01:14:12;7.78;;;1.70;;
43048;SDS011;28673;44.412;11.918;2023-03-14T01:16:38;12.60;;;1.60;;
43048;SDS011;28673;44.412;11.918;2023-03-14T01:19:04;7.03;;;1.35;;
43048;SDS011;28673;44.412;11.918;2023-03-14T01:21:31;6.07;;;1.50;;
43048;SDS011;28673;44.412;11.918;2023-03-14T01:24:01;4.55;;;1.88;;
43048;SDS011;28673;44.412;11.918;2023-03-14T01:26:29;10.98;;;3.45;;
43048;SDS011;28673;44.412;11.918;2023-03-14T01:28:57;3.00;;;1.42;;
43048;SDS011;28673;44.412;11.918;2023-03-14T01:31:24;7.15;;;1.23;;
43048;SDS011;28673;44.412;11.918;2023-03-14T01:33:51;4.10;;;1.05;;
43048;SDS011;28673;44.412;11.918;2023-03-14T01:36:18;6.20;;;1.30;;
43048;SDS011;28673;44.412;11.918;2023-03-14T01:38:45;4.00;;;1.85;;
43048;SDS011;28673;44.412;11.918;2023-03-14T01:41:15;3.08;;;1.30;;
43048;SDS011;28673;44.412;11.918;2023-03-14T01:43:43;7.57;;;1.42;;
43048;SDS011;28673;44.412;11.918;2023-03-14T01:48:42;2.10;;;1.20;;
43048;SDS011;28673;44.412;11.918;2023-03-14T01:51:10;3.60;;;1.55;;
43048;SDS011;28673;44.412;11.918;2023-03-14T01:53:41;5.07;;;2.30;;
43048;SDS011;28673;44.412;11.918;2023-03-14T01:56:09;4.95;;;2.22;;
43048;SDS011;28673;44.412;11.918;2023-03-14T01:58:39;6.07;;;1.95;;
43048;SDS011;28673;44.412;11.918;2023-03-14T02:01:09;3.83;;;1.10;;
43048;SDS011;28673;44.412;11.918;2023-03-14T02:03:38;7.50;;;2.17;;
43048;SDS011;28673;44.412;11.918;2023-03-14T02:06:17;4.95;;;1.65;;
43048;SDS011;28673;44.412;11.918;2023-03-14T02:08:48;4.53;;;2.08;;
43048;SDS011;28673;44.412;11.918;2023-03-14T02:11:18;4.43;;;1.40;;
43048;SDS011;28673;44.412;11.918;2023-03-14T02:13:54;6.07;;;1.73;;
43048;SDS011;28673;44.412;11.918;2023-03-14T02:16:51;5.22;;;2.40;;
43048;SDS011;28673;44.412;11.918;2023-03-14T02:22:31;14.70;;;3.70;;
43048;SDS011;28673;44.412;11.918;2023-03-14T02:27:47;16.08;;;4.55;;
43048;SDS011;28673;44.412;11.918;2023-03-14T02:32:44;5.53;;;4.20;;
43048;SDS011;28673;44.412;11.918;2023-03-14T02:35:24;12.13;;;7.05;;
43048;SDS011;28673;44.412;11.918;2023-03-14T02:37:59;10.18;;;5.00;;
43048;SDS011;28673;44.412;11.918;2023-03-14T02:40:36;9.13;;;5.65;;
43048;SDS011;28673;44.412;11.918;2023-03-14T02:43:02;12.95;;;7.15;;
43048;SDS011;28673;44.412;11.918;2023-03-14T02:45:37;16.52;;;6.18;;
43048;SDS011;28673;44.412;11.918;2023-03-14T02:48:18;12.60;;;6.85;;
43048;SDS011;28673;44.412;11.918;2023-03-14T02:50:56;15.45;;;8.43;;
43048;SDS011;28673;44.412;11.918;2023-03-14T02:53:25;13.32;;;7.78;;
43048;SDS011;28673;44.412;11.918;2023-03-14T02:55:57;12.95;;;7.07;;
43048;SDS011;28673;44.412;11.918;2023-03-14T02:58:23;15.50;;;7.88;;
43048;SDS011;28673;44.412;11.918;2023-03-14T03:00:55;12.93;;;8.88;;
43048;SDS011;28673;44.412;11.918;2023-03-14T03:03:22;17.00;;;7.45;;
43048;SDS011;28673;44.412;11.918;2023-03-14T03:05:51;13.07;;;7.57;;
43048;SDS011;28673;44.412;11.918;2023-03-14T03:08:20;15.68;;;8.48;;
43048;SDS011;28673;44.412;11.918;2023-03-14T03:10:47;16.35;;;8.18;;
43048;SDS011;28673;44.412;11.918;2023-03-14T03:13:14;17.05;;;7.68;;
43048;SDS011;28673;44.412;11.918;2023-03-14T03:15:41;13.55;;;7.78;;
43048;SDS011;28673;44.412;11.918;2023-03-14T03:18:07;14.07;;;7.57;;
43048;SDS011;28673;44.412;11.918;2023-03-14T03:20:33;14.38;;;8.13;;
43048;SDS011;28673;44.412;11.918;2023-03-14T03:22:59;20.58;;;8.40;;
43048;SDS011;28673;44.412;11.918;2023-03-14T03:25:25;17.40;;;8.40;;
43048;SDS011;28673;44.412;11.918;2023-03-14T03:27:52;15.02;;;8.07;;
43048;SDS011;28673;44.412;11.918;2023-03-14T03:30:19;16.05;;;7.97;;
43048;SDS011;28673;44.412;11.918;2023-03-14T03:32:46;12.20;;;7.15;;
43048;SDS011;28673;44.412;11.918;2023-03-14T03:35:12;12.45;;;6.70;;
43048;SDS011;28673;44.412;11.918;2023-03-14T03:37:38;17.20;;;6.95;;
43048;SDS011;28673;44.412;11.918;2023-03-14T03:40:05;9.35;;;6.30;;
43048;SDS011;28673;44.412;11.918;2023-03-14T03:42:34;13.95;;;6.22;;
43048;SDS011;28673;44.412;11.918;2023-03-14T03:45:01;12.75;;;6.68;;
43048;SDS011;28673;44.412;11.918;2023-03-14T03:47:30;12.38;;;5.82;;
43048;SDS011;28673;44.412;11.918;2023-03-14T03:49:57;15.73;;;7.03;;
43048;SDS011;28673;44.412;11.918;2023-03-14T03:52:22;10.15;;;6.93;;
43048;SDS011;28673;44.412;11.918;2023-03-14T03:54:48;12.57;;;5.90;;
43048;SDS011;28673;44.412;11.918;2023-03-14T03:57:14;9.75;;;6.28;;
43048;SDS011;28673;44.412;11.918;2023-03-14T03:59:40;9.02;;;5.22;;
43048;SDS011;28673;44.412;11.918;2023-03-14T04:02:07;8.13;;;5.40;;
43048;SDS011;28673;44.412;11.918;2023-03-14T04:04:33;14.38;;;6.45;;
43048;SDS011;28673;44.412;11.918;2023-03-14T04:07:02;11.13;;;6.00;;
43048;SDS011;28673;44.412;11.918;2023-03-14T04:09:28;16.27;;;6.20;;
43048;SDS011;28673;44.412;11.918;2023-03-14T04:12:08;11.70;;;5.78;;
43048;SDS011;28673;44.412;11.918;2023-03-14T04:14:51;10.20;;;4.47;;
43048;SDS011;28673;44.412;11.918;2023-03-14T04:17:20;5.82;;;4.03;;
43048;SDS011;28673;44.412;11.918;2023-03-14T04:19:46;5.07;;;4.32;;
43048;SDS011;28673;44.412;11.918;2023-03-14T04:22:15;10.60;;;3.55;;
43048;SDS011;28673;44.412;11.918;2023-03-14T04:24:47;5.38;;;3.42;;
43048;SDS011;28673;44.412;11.918;2023-03-14T04:27:13;9.20;;;3.65;;
43048;SDS011;28673;44.412;11.918;2023-03-14T04:29:41;7.55;;;3.30;;
43048;SDS011;28673;44.412;11.918;2023-03-14T04:32:08;7.03;;;2.15;;
43048;SDS011;28673;44.412;11.918;2023-03-14T04:34:36;7.78;;;2.15;;
43048;SDS011;28673;44.412;11.918;2023-03-14T04:37:03;4.82;;;1.70;;
43048;SDS011;28673;44.412;11.918;2023-03-14T04:39:34;6.68;;;2.08;;
43048;SDS011;28673;44.412;11.918;2023-03-14T04:42:10;7.00;;;2.42;;
43048;SDS011;28673;44.412;11.918;2023-03-14T04:44:37;5.10;;;1.88;;
43048;SDS011;28673;44.412;11.918;2023-03-14T04:47:04;10.30;;;2.45;;
43048;SDS011;28673;44.412;11.918;2023-03-14T04:49:30;14.70;;;7.57;;
43048;SDS011;28673;44.412;11.918;2023-03-14T04:51:56;10.73;;;3.10;;
43048;SDS011;28673;44.412;11.918;2023-03-14T04:54:24;5.18;;;2.95;;
43048;SDS011;28673;44.412;11.918;2023-03-14T04:56:55;6.23;;;1.83;;
43048;SDS011;28673;44.412;11.918;2023-03-14T04:59:21;4.07;;;1.48;;
43048;SDS011;28673;44.412;11.918;2023-03-14T05:01:48;3.35;;;1.90;;
43048;SDS011;28673;44.412;11.918;2023-03-14T05:04:34;4.93;;;1.70;;
43048;SDS011;28673;44.412;11.918;2023-03-14T05:07:22;2.13;;;1.20;;
43048;SDS011;28673;44.412;11.918;2023-03-14T05:10:11;7.47;;;1.75;;
43048;SDS011;28673;44.412;11.918;2023-03-14T05:12:46;6.97;;;1.45;;
43048;SDS011;28673;44.412;11.918;2023-03-14T05:15:43;6.28;;;1.25;;
43048;SDS011;28673;44.412;11.918;2023-03-14T05:18:39;4.13;;;1.73;;
43048;SDS011;28673;44.412;11.918;2023-03-14T05:21:25;4.68;;;1.65;;
43048;SDS011;28673;44.412;11.918;2023-03-14T05:24:07;8.15;;;1.92;;
43048;SDS011;28673;44.412;11.918;2023-03-14T05:26:52;7.65;;;1.77;;
43048;SDS011;28673;44.412;11.918;2023-03-14T05:29:41;5.25;;;2.13;;
43048;SDS011;28673;44.412;11.918;2023-03-14T05:32:29;6.20;;;1.80;;
43048;SDS011;28673;44.412;11.918;2023-03-14T05:35:11;3.08;;;1.52;;
43048;SDS011;28673;44.412;11.918;2023-03-14T05:37:50;11.63;;;2.03;;
43048;SDS011;28673;44.412;11.918;2023-03-14T05:40:41;10.43;;;3.22;;
43048;SDS011;28673;44.412;11.918;2023-03-14T05:43:13;7.13;;;2.78;;
43048;SDS011;28673;44.412;11.918;2023-03-14T05:45:56;6.13;;;3.00;;
43048;SDS011;28673;44.412;11.918;2023-03-14T05:49:00;8.35;;;3.00;;
43048;SDS011;28673;44.412;11.918;2023-03-14T05:51:52;5.88;;;1.83;;
43048;SDS011;28673;44.412;11.918;2023-03-14T05:54:41;5.93;;;2.33;;
43048;SDS011;28673;44.412;11.918;2023-03-14T05:57:36;7.60;;;2.13;;
43048;SDS011;28673;44.412;11.918;2023-03-14T06:00:27;13.00;;;4.75;;
43048;SDS011;28673;44.412;11.918;2023-03-14T06:03:12;8.30;;;2.22;;
43048;SDS011;28673;44.412;11.918;2023-03-14T06:05:42;6.43;;;1.92;;
43048;SDS011;28673;44.412;11.918;2023-03-14T06:08:08;5.13;;;1.58;;
43048;SDS011;28673;44.412;11.918;2023-03-14T06:10:35;3.47;;;1.80;;
43048;SDS011;28673;44.412;11.918;2023-03-14T06:13:01;7.35;;;2.67;;
43048;SDS011;28673;44.412;11.918;2023-03-14T06:15:29;5.38;;;1.92;;
43048;SDS011;28673;44.412;11.918;2023-03-14T06:17:55;9.95;;;2.17;;
43048;SDS011;28673;44.412;11.918;2023-03-14T06:20:22;4.40;;;2.22;;
43048;SDS011;28673;44.412;11.918;2023-03-14T06:22:48;5.60;;;1.70;;
43048;SDS011;28673;44.412;11.918;2023-03-14T06:25:15;3.80;;;1.70;;
43048;SDS011;28673;44.412;11.918;2023-03-14T06:27:44;8.10;;;2.00;;
43048;SDS011;28673;44.412;11.918;2023-03-14T06:30:10;6.88;;;2.28;;
43048;SDS011;28673;44.412;11.918;2023-03-14T06:32:37;6.25;;;1.73;;
43048;SDS011;28673;44.412;11.918;2023-03-14T06:35:07;9.32;;;2.30;;
43048;SDS011;28673;44.412;11.918;2023-03-14T06:37:37;7.18;;;2.15;;
43048;SDS011;28673;44.412;11.918;2023-03-14T06:40:05;5.43;;;2.10;;
43048;SDS011;28673;44.412;11.918;2023-03-14T06:42:58;6.95;;;2.42;;
43048;SDS011;28673;44.412;11.918;2023-03-14T06:45:28;9.70;;;2.53;;
43048;SDS011;28673;44.412;11.918;2023-03-14T06:47:56;4.85;;;2.83;;
43048;SDS011;28673;44.412;11.918;2023-03-14T06:50:28;6.78;;;2.15;;
43048;SDS011;28673;44.412;11.918;2023-03-14T06:52:56;11.40;;;5.40;;
43048;SDS011;28673;44.412;11.918;2023-03-14T06:55:24;7.63;;;3.15;;
43048;SDS011;28673;44.412;11.918;2023-03-14T06:57:52;7.25;;;3.10;;
43048;SDS011;28673;44.412;11.918;2023-03-14T07:00:19;8.57;;;2.50;;
43048;SDS011;28673;44.412;11.918;2023-03-14T07:02:45;8.73;;;2.80;;
43048;SDS011;28673;44.412;11.918;2023-03-14T07:05:23;6.40;;;3.28;;
43048;SDS011;28673;44.412;11.918;2023-03-14T07:07:55;9.23;;;2.85;;
43048;SDS011;28673;44.412;11.918;2023-03-14T07:10:22;9.27;;;2.58;;
43048;SDS011;28673;44.412;11.918;2023-03-14T07:12:49;3.50;;;2.08;;
43048;SDS011;28673;44.412;11.918;2023-03-14T07:15:15;2.53;;;1.50;;
43048;SDS011;28673;44.412;11.918;2023-03-14T07:17:41;9.05;;;2.75;;
43048;SDS011;28673;44.412;11.918;2023-03-14T07:20:08;3.80;;;1.60;;
43048;SDS011;28673;44.412;11.918;2023-03-14T07:22:34;9.05;;;2.00;;
43048;SDS011;28673;44.412;11.918;2023-03-14T07:25:00;4.35;;;1.60;;
43048;SDS011;28673;44.412;11.918;2023-03-14T07:27:27;5.93;;;2.20;;
43048;SDS011;28673;44.412;11.918;2023-03-14T07:29:53;4.90;;;1.73;;
43048;SDS011;28673;44.412;11.918;2023-03-14T07:32:19;7.60;;;2.00;;
43048;SDS011;28673;44.412;11.918;2023-03-14T07:34:45;4.22;;;2.25;;
43048;SDS011;28673;44.412;11.918;2023-03-14T07:37:11;7.57;;;3.38;;
43048;SDS011;28673;44.412;11.918;2023-03-14T07:39:37;5.15;;;2.00;;
43048;SDS011;28673;44.412;11.918;2023-03-14T07:42:07;5.07;;;1.88;;
43048;SDS011;28673;44.412;11.918;2023-03-14T07:44:56;6.50;;;2.75;;
43048;SDS011;28673;44.412;11.918;2023-03-14T07:47:22;7.82;;;2.83;;
43048;SDS011;28673;44.412;11.918;2023-03-14T07:49:48;8.38;;;3.22;;
43048;SDS011;28673;44.412;11.918;2023-03-14T07:52:13;11.13;;;3.10;;
43048;SDS011;28673;44.412;11.918;2023-03-14T07:54:39;6.90;;;2.80;;
43048;SDS011;28673;44.412;11.918;2023-03-14T07:57:05;9.02;;;2.25;;
43048;SDS011;28673;44.412;11.918;2023-03-14T07:59:31;5.47;;;2.55;;
43048;SDS011;28673;44.412;11.918;2023-03-14T08:01:57;7.45;;;3.72;;
43048;SDS011;28673;44.412;11.918;2023-03-14T08:04:24;7.35;;;2.05;;
43048;SDS011;28673;44.412;11.918;2023-03-14T08:06:49;5.88;;;3.30;;
43048;SDS011;28673;44.412;11.918;2023-03-14T08:09:15;7.28;;;2.10;;
43048;SDS011;28673;44.412;11.918;2023-03-14T08:11:41;7.00;;;2.08;;
43048;SDS011;28673;44.412;11.918;2023-03-14T08:14:07;8.75;;;2.10;;
43048;SDS011;28673;44.412;11.918;2023-03-14T08:16:34;5.85;;;1.70;;
43048;SDS011;28673;44.412;11.918;2023-03-14T08:19:00;7.60;;;2.70;;
43048;SDS011;28673;44.412;11.918;2023-03-14T08:21:26;6.72;;;2.28;;
43048;SDS011;28673;44.412;11.918;2023-03-14T08:23:52;12.18;;;2.42;;
43048;SDS011;28673;44.412;11.918;2023-03-14T08:26:17;5.05;;;2.25;;
43048;SDS011;28673;44.412;11.918;2023-03-14T08:28:43;9.85;;;2.03;;
43048;SDS011;28673;44.412;11.918;2023-03-14T08:31:09;6.32;;;1.52;;
43048;SDS011;28673;44.412;11.918;2023-03-14T08:33:35;6.95;;;1.98;;
43048;SDS011;28673;44.412;11.918;2023-03-14T08:36:01;6.13;;;2.30;;
43048;SDS011;28673;44.412;11.918;2023-03-14T08:38:27;9.35;;;2.13;;
43048;SDS011;28673;44.412;11.918;2023-03-14T08:40:57;5.78;;;1.75;;
43048;SDS011;28673;44.412;11.918;2023-03-14T08:43:24;8.23;;;1.83;;
43048;SDS011;28673;44.412;11.918;2023-03-14T08:45:50;5.35;;;2.20;;
43048;SDS011;28673;44.412;11.918;2023-03-14T08:48:16;8.82;;;1.90;;
43048;SDS011;28673;44.412;11.918;2023-03-14T08:50:42;9.63;;;1.75;;
43048;SDS011;28673;44.412;11.918;2023-03-14T08:53:08;5.80;;;2.58;;
43048;SDS011;28673;44.412;11.918;2023-03-14T08:55:34;7.50;;;2.58;;
43048;SDS011;28673;44.412;11.918;2023-03-14T08:58:00;5.32;;;2.97;;
43048;SDS011;28673;44.412;11.918;2023-03-14T09:00:26;9.98;;;2.97;;
43048;SDS011;28673;44.412;11.918;2023-03-14T09:02:52;14.35;;;4.78;;
43048;SDS011;28673;44.412;11.918;2023-03-14T09:05:20;5.63;;;2.22;;
43048;SDS011;28673;44.412;11.918;2023-03-14T09:07:46;8.10;;;2.33;;
43048;SDS011;28673;44.412;11.918;2023-03-14T09:10:12;5.97;;;2.10;;
43048;SDS011;28673;44.412;11.918;2023-03-14T09:12:41;9.93;;;2.50;;
43048;SDS011;28673;44.412;11.918;2023-03-14T09:15:07;5.10;;;1.88;;
43048;SDS011;28673;44.412;11.918;2023-03-14T09:17:34;4.78;;;1.88;;
43048;SDS011;28673;44.412;11.918;2023-03-14T09:19:59;8.77;;;2.50;;
43048;SDS011;28673;44.412;11.918;2023-03-14T09:22:26;6.05;;;1.80;;
43048;SDS011;28673;44.412;11.918;2023-03-14T09:24:54;6.50;;;2.03;;
43048;SDS011;28673;44.412;11.918;2023-03-14T09:27:22;3.50;;;1.75;;
43048;SDS011;28673;44.412;11.918;2023-03-14T09:29:48;4.47;;;1.20;;
43048;SDS011;28673;44.412;11.918;2023-03-14T09:32:14;8.88;;;2.92;;
43048;SDS011;28673;44.412;11.918;2023-03-14T09:34:40;4.88;;;1.63;;
43048;SDS011;28673;44.412;11.918;2023-03-14T09:37:07;6.07;;;1.45;;
43048;SDS011;28673;44.412;11.918;2023-03-14T09:39:33;6.72;;;1.42;;
43048;SDS011;28673;44.412;11.918;2023-03-14T09:42:01;11.40;;;3.38;;
43048;SDS011;28673;44.412;11.918;2023-03-14T09:44:30;2.75;;;1.73;;
43048;SDS011;28673;44.412;11.918;2023-03-14T09:47:00;3.47;;;1.42;;
43048;SDS011;28673;44.412;11.918;2023-03-14T09:49:43;4.32;;;1.70;;
43048;SDS011;28673;44.412;11.918;2023-03-14T09:52:13;3.03;;;1.48;;
43048;SDS011;28673;44.412;11.918;2023-03-14T09:54:45;4.82;;;1.65;;
43048;SDS011;28673;44.412;11.918;2023-03-14T09:57:18;7.13;;;3.20;;
43048;SDS011;28673;44.412;11.918;2023-03-14T09:59:49;10.75;;;1.80;;
43048;SDS011;28673;44.412;11.918;2023-03-14T10:02:18;11.40;;;1.80;;
43048;SDS011;28673;44.412;11.918;2023-03-14T10:04:46;3.80;;;1.85;;
43048;SDS011;28673;44.412;11.918;2023-03-14T10:07:18;4.78;;;1.58;;
43048;SDS011;28673;44.412;11.918;2023-03-14T10:09:49;7.60;;;2.10;;
43048;SDS011;28673;44.412;11.918;2023-03-14T10:12:17;3.13;;;1.42;;
43048;SDS011;28673;44.412;11.918;2023-03-14T10:14:45;7.90;;;1.27;;
43048;SDS011;28673;44.412;11.918;2023-03-14T10:17:14;5.65;;;2.63;;
43048;SDS011;28673;44.412;11.918;2023-03-14T10:20:00;5.60;;;1.65;;
43048;SDS011;28673;44.412;11.918;2023-03-14T10:22:28;7.80;;;1.30;;
43048;SDS011;28673;44.412;11.918;2023-03-14T10:24:57;10.65;;;1.58;;
43048;SDS011;28673;44.412;11.918;2023-03-14T10:27:33;3.40;;;2.00;;
43048;SDS011;28673;44.412;11.918;2023-03-14T10:30:07;3.53;;;1.88;;
43048;SDS011;28673;44.412;11.918;2023-03-14T10:33:22;8.00;;;1.50;;
43048;SDS011;28673;44.412;11.918;2023-03-14T10:36:33;5.30;;;1.40;;
43048;SDS011;28673;44.412;11.918;2023-03-14T10:38:44;9.35;;;2.33;;
43048;SDS011;28673;44.412;11.918;2023-03-14T10:41:30;4.80;;;1.80;;
43048;SDS011;28673;44.412;11.918;2023-03-14T10:43:59;8.32;;;1.60;;
43048;SDS011;28673;44.412;11.918;2023-03-14T10:46:29;5.50;;;1.30;;
43048;SDS011;28673;44.412;11.918;2023-03-14T10:49:23;7.50;;;3.35;;
43048;SDS011;28673;44.412;11.918;2023-03-14T10:51:53;3.78;;;1.70;;
43048;SDS011;28673;44.412;11.918;2023-03-14T10:54:21;5.40;;;2.30;;
43048;SDS011;28673;44.412;11.918;2023-03-14T10:56:58;3.30;;;1.30;;
43048;SDS011;28673;44.412;11.918;2023-03-14T10:59:27;5.32;;;2.05;;
43048;SDS011;28673;44.412;11.918;2023-03-14T11:02:03;7.00;;;1.58;;
43048;SDS011;28673;44.412;11.918;2023-03-14T11:07:23;6.88;;;2.25;;
43048;SDS011;28673;44.412;11.918;2023-03-14T11:10:14;3.60;;;1.42;;
43048;SDS011;28673;44.412;11.918;2023-03-14T11:15:49;3.30;;;1.65;;
43048;SDS011;28673;44.412;11.918;2023-03-14T11:21:11;7.65;;;2.00;;
43048;SDS011;28673;44.412;11.918;2023-03-14T11:28:57;3.95;;;1.60;;
43048;SDS011;28673;44.412;11.918;2023-03-14T11:31:28;3.42;;;1.15;;
43048;SDS011;28673;44.412;11.918;2023-03-14T11:39:13;3.40;;;1.58;;
43048;SDS011;28673;44.412;11.918;2023-03-14T11:41:46;6.57;;;1.48;;
43048;SDS011;28673;44.412;11.918;2023-03-14T11:47:03;2.28;;;1.27;;
43048;SDS011;28673;44.412;11.918;2023-03-14T11:49:42;5.00;;;1.38;;
43048;SDS011;28673;44.412;11.918;2023-03-14T11:52:11;3.15;;;1.65;;
43048;SDS011;28673;44.412;11.918;2023-03-14T11:54:48;4.40;;;2.05;;
43048;SDS011;28673;44.412;11.918;2023-03-14T11:57:19;2.55;;;1.13;;
43048;SDS011;28673;44.412;11.918;2023-03-14T11:59:51;7.47;;;1.80;;
43048;SDS011;28673;44.412;11.918;2023-03-14T12:05:27;8.20;;;1.73;;
43048;SDS011;28673;44.412;11.918;2023-03-14T12:13:10;3.75;;;1.00;;
43048;SDS011;28673;44.412;11.918;2023-03-14T12:15:46;6.72;;;1.20;;
43048;SDS011;28673;44.412;11.918;2023-03-14T12:18:26;7.82;;;1.02;;
43048;SDS011;28673;44.412;11.918;2023-03-14T12:20:54;3.92;;;1.88;;
43048;SDS011;28673;44.412;11.918;2023-03-14T12:23:22;2.58;;;0.85;;
43048;SDS011;28673;44.412;11.918;2023-03-14T12:26:05;5.93;;;1.98;;
43048;SDS011;28673;44.412;11.918;2023-03-14T12:47:57;3.10;;;1.08;;
43048;SDS011;28673;44.412;11.918;2023-03-14T12:50:30;1.65;;;1.00;;
43048;SDS011;28673;44.412;11.918;2023-03-14T12:53:19;5.38;;;1.23;;
43048;SDS011;28673;44.412;11.918;2023-03-14T12:56:09;3.20;;;0.80;;
43048;SDS011;28673;44.412;11.918;2023-03-14T13:01:59;6.00;;;1.27;;
43048;SDS011;28673;44.412;11.918;2023-03-14T13:04:35;5.05;;;1.45;;
43048;SDS011;28673;44.412;11.918;2023-03-14T13:15:44;7.47;;;1.20;;
43048;SDS011;28673;44.412;11.918;2023-03-14T13:18:13;1.90;;;0.95;;
43048;SDS011;28673;44.412;11.918;2023-03-14T13:20:45;2.05;;;1.05;;
43048;SDS011;28673;44.412;11.918;2023-03-14T13:23:25;5.57;;;0.73;;
43048;SDS011;28673;44.412;11.918;2023-03-14T13:25:56;3.58;;;0.73;;
43048;SDS011;28673;44.412;11.918;2023-03-14T13:28:24;2.67;;;0.60;;
43048;SDS011;28673;44.412;11.918;2023-03-14T13:30:55;1.55;;;0.70;;
43048;SDS011;28673;44.412;11.918;2023-03-14T13:33:27;1.88;;;0.73;;
43048;SDS011;28673;44.412;11.918;2023-03-14T13:36:00;1.20;;;0.57;;
43048;SDS011;28673;44.412;11.918;2023-03-14T13:38:29;2.75;;;0.50;;
43048;SDS011;28673;44.412;11.918;2023-03-14T13:41:03;1.48;;;0.55;;
43048;SDS011;28673;44.412;11.918;2023-03-14T13:48:45;4.22;;;0.75;;
43048;SDS011;28673;44.412;11.918;2023-03-14T13:51:16;1.50;;;0.70;;
43048;SDS011;28673;44.412;11.918;2023-03-14T13:56:15;0.88;;;0.82;;
43048;SDS011;28673;44.412;11.918;2023-03-14T13:58:48;2.92;;;0.73;;
43048;SDS011;28673;44.412;11.918;2023-03-14T14:04:05;2.53;;;0.70;;
43048;SDS011;28673;44.412;11.918;2023-03-14T14:06:39;1.27;;;0.50;;
43048;SDS011;28673;44.412;11.918;2023-03-14T14:09:15;5.25;;;1.35;;
43048;SDS011;28673;44.412;11.918;2023-03-14T14:14:28;4.18;;;1.67;;
43048;SDS011;28673;44.412;11.918;2023-03-14T14:16:59;6.53;;;1.30;;
43048;SDS011;28673;44.412;11.918;2023-03-14T14:19:27;5.78;;;1.60;;
43048;SDS011;28673;44.412;11.918;2023-03-14T14:21:56;1.77;;;0.98;;
43048;SDS011;28673;44.412;11.918;2023-03-14T14:24:23;6.65;;;1.42;;
43048;SDS011;28673;44.412;11.918;2023-03-14T14:26:54;5.63;;;1.80;;
43048;SDS011;28673;44.412;11.918;2023-03-14T14:29:36;4.20;;;1.38;;
43048;SDS011;28673;44.412;11.918;2023-03-14T14:32:12;12.93;;;1.70;;
43048;SDS011;28673;44.412;11.918;2023-03-14T14:34:55;3.10;;;1.33;;
43048;SDS011;28673;44.412;11.918;2023-03-14T14:37:27;4.95;;;1.50;;
43048;SDS011;28673;44.412;11.918;2023-03-14T14:39:56;6.10;;;1.50;;
43048;SDS011;28673;44.412;11.918;2023-03-14T14:42:25;8.10;;;1.20;;
43048;SDS011;28673;44.412;11.918;2023-03-14T14:44:56;10.93;;;1.45;;
43048;SDS011;28673;44.412;11.918;2023-03-14T14:47:24;8.93;;;1.90;;
43048;SDS011;28673;44.412;11.918;2023-03-14T14:49:52;6.93;;;1.67;;
43048;SDS011;28673;44.412;11.918;2023-03-14T14:52:21;3.05;;;1.15;;
43048;SDS011;28673;44.412;11.918;2023-03-14T14:55:00;5.38;;;1.33;;
43048;SDS011;28673;44.412;11.918;2023-03-14T14:57:27;3.33;;;1.00;;
43048;SDS011;28673;44.412;11.918;2023-03-14T14:59:59;3.03;;;1.13;;
43048;SDS011;28673;44.412;11.918;2023-03-14T15:02:36;6.80;;;1.52;;
43048;SDS011;28673;44.412;11.918;2023-03-14T15:05:21;11.23;;;1.90;;
43048;SDS011;28673;44.412;11.918;2023-03-14T15:07:48;5.18;;;1.27;;
43048;SDS011;28673;44.412;11.918;2023-03-14T15:10:18;4.97;;;1.77;;
43048;SDS011;28673;44.412;11.918;2023-03-14T15:12:46;4.53;;;1.40;;
43048;SDS011;28673;44.412;11.918;2023-03-14T15:15:15;3.83;;;1.00;;
43048;SDS011;28673;44.412;11.918;2023-03-14T15:17:41;4.05;;;1.10;;
43048;SDS011;28673;44.412;11.918;2023-03-14T15:20:13;6.03;;;1.70;;
43048;SDS011;28673;44.412;11.918;2023-03-14T15:22:40;5.30;;;1.80;;
43048;SDS011;28673;44.412;11.918;2023-03-14T15:25:07;7.40;;;1.52;;
43048;SDS011;28673;44.412;11.918;2023-03-14T15:27:35;11.73;;;2.13;;
43048;SDS011;28673;44.412;11.918;2023-03-14T15:30:05;7.93;;;1.02;;
43048;SDS011;28673;44.412;11.918;2023-03-14T15:32:34;11.27;;;1.40;;
43048;SDS011;28673;44.412;11.918;2023-03-14T15:35:00;5.90;;;1.75;;
43048;SDS011;28673;44.412;11.918;2023-03-14T15:37:26;10.40;;;2.95;;
43048;SDS011;28673;44.412;11.918;2023-03-14T15:39:51;4.97;;;1.60;;
43048;SDS011;28673;44.412;11.918;2023-03-14T15:42:17;9.95;;;1.83;;
43048;SDS011;28673;44.412;11.918;2023-03-14T15:44:43;5.22;;;1.45;;
43048;SDS011;28673;44.412;11.918;2023-03-14T15:47:09;10.20;;;1.55;;
43048;SDS011;28673;44.412;11.918;2023-03-14T15:49:36;5.85;;;1.98;;
43048;SDS011;28673;44.412;11.918;2023-03-14T15:52:02;5.90;;;1.70;;
43048;SDS011;28673;44.412;11.918;2023-03-14T15:54:28;5.90;;;1.77;;
43048;SDS011;28673;44.412;11.918;2023-03-14T15:56:57;9.25;;;1.85;;
43048;SDS011;28673;44.412;11.918;2023-03-14T15:59:23;10.02;;;2.83;;
43048;SDS011;28673;44.412;11.918;2023-03-14T16:01:49;6.85;;;2.28;;
43048;SDS011;28673;44.412;11.918;2023-03-14T16:04:16;8.43;;;2.08;;
43048;SDS011;28673;44.412;11.918;2023-03-14T16:06:42;5.88;;;1.48;;
43048;SDS011;28673;44.412;11.918;2023-03-14T16:09:10;9.45;;;2.50;;
43048;SDS011;28673;44.412;11.918;2023-03-14T16:11:39;8.55;;;1.75;;
43048;SDS011;28673;44.412;11.918;2023-03-14T16:14:05;12.88;;;1.85;;
43048;SDS011;28673;44.412;11.918;2023-03-14T16:16:31;10.65;;;3.13;;
43048;SDS011;28673;44.412;11.918;2023-03-14T16:18:57;6.72;;;1.65;;
43048;SDS011;28673;44.412;11.918;2023-03-14T16:21:23;7.65;;;2.50;;
43048;SDS011;28673;44.412;11.918;2023-03-14T16:23:49;6.60;;;1.80;;
43048;SDS011;28673;44.412;11.918;2023-03-14T16:26:16;11.18;;;2.45;;
43048;SDS011;28673;44.412;11.918;2023-03-14T16:28:44;7.60;;;3.10;;